Time;durP1;ratioP1;P1;durP2;ratioP2;P2;SDS_P1;SDS_P2;PMS_P1;PMS_P2;Temp;Humidity;BMP_temperature;BMP_pressure;BME280_temperature;BME280_humidity;BME280_pressure;Samples;Min_cycle;Max_cycle;Signal;HPM_P1;HPM_P2
2023/01/19 00:02:55;;;;;;;178.68;67.32;;;;;;;;;;6264301;28;20132;-61
2023/01/19 00:05:56;;;;;;;169.25;64.40;;;;;;;;;;6281815;28;20068;-60
2023/01/19 00:08:57;;;;;;;171.93;61.13;;;;;;;;;;6265276;28;20103;-60
2023/01/19 00:11:57;;;;;;;154.18;58.47;;;;;;;;;;6263968;28;20087;-61
2023/01/19 00:14:58;;;;;;;155.75;58.30;;;;;;;;;;6270930;28;20044;-61
2023/01/19 00:17:58;;;;;;;150.77;56.88;;;;;;;;;;6289062;28;20064;-60
2023/01/19 00:20:59;;;;;;;134.70;51.95;;;;;;;;;;6271577;28;20470;-63
2023/01/19 00:23:59;;;;;;;135.25;51.75;;;;;;;;;;6266327;28;20045;-63
2023/01/19 00:27:02;;;;;;;130.93;53.08;;;;;;;;;;6263087;28;20044;-63
2023/01/19 00:30:03;;;;;;;121.40;43.42;;;;;;;;;;6266058;28;20132;-63
2023/01/19 00:33:04;;;;;;;112.82;42.05;;;;;;;;;;6266839;28;20068;-63
2023/01/19 00:36:05;;;;;;;139.65;49.40;;;;;;;;;;6266902;28;20047;-63
2023/01/19 00:39:06;;;;;;;149.25;49.97;;;;;;;;;;6265855;28;20517;-61
2023/01/19 00:45:31;;;;;;;154.38;54.88;;;;;;;;;;6272670;28;20347;-63
2023/01/19 00:48:31;;;;;;;176.02;60.85;;;;;;;;;;6270406;28;20041;-61
2023/01/19 00:51:32;;;;;;;272.80;79.57;;;;;;;;;;6291529;28;20479;-63
2023/01/19 00:54:32;;;;;;;214.75;65.63;;;;;;;;;;6265455;28;20113;-62
2023/01/19 00:57:33;;;;;;;141.73;49.58;;;;;;;;;;6270729;28;20056;-63
2023/01/19 01:00:34;;;;;;;140.45;51.70;;;;;;;;;;6280538;28;20518;-60
2023/01/19 01:03:35;;;;;;;139.70;51.83;;;;;;;;;;6269004;28;20036;-60
2023/01/19 01:06:36;;;;;;;170.70;59.13;;;;;;;;;;6270084;28;20049;-63
2023/01/19 01:09:36;;;;;;;148.07;49.22;;;;;;;;;;6271681;28;20052;-63
2023/01/19 01:12:37;;;;;;;140.80;58.47;;;;;;;;;;6270749;28;20388;-63
2023/01/19 01:15:38;;;;;;;138.80;55.67;;;;;;;;;;6274156;28;20480;-63
2023/01/19 01:18:38;;;;;;;156.23;58.15;;;;;;;;;;6270001;28;20510;-63
2023/01/19 01:21:39;;;;;;;142.35;51.08;;;;;;;;;;6269580;28;20511;-63
2023/01/19 01:24:40;;;;;;;153.02;56.83;;;;;;;;;;6267926;28;20060;-64
2023/01/19 01:27:41;;;;;;;150.52;56.00;;;;;;;;;;6269190;28;20130;-63
2023/01/19 01:30:42;;;;;;;149.80;53.80;;;;;;;;;;6271871;28;20088;-62
2023/01/19 01:33:43;;;;;;;121.50;45.95;;;;;;;;;;6264972;28;20400;-64
2023/01/19 01:36:44;;;;;;;129.98;45.40;;;;;;;;;;6266985;28;20041;-63
2023/01/19 01:39:44;;;;;;;138.40;47.97;;;;;;;;;;6282508;28;20041;-63
2023/01/19 01:42:45;;;;;;;127.55;48.00;;;;;;;;;;6268912;28;20048;-63
2023/01/19 01:45:45;;;;;;;124.93;45.78;;;;;;;;;;6268935;28;20474;-63
2023/01/19 01:49:11;;;;;;;121.65;44.13;;;;;;;;;;6267286;28;20048;-63
2023/01/19 01:52:13;;;;;;;124.75;45.88;;;;;;;;;;6257502;28;20045;-62
2023/01/19 01:55:15;;;;;;;127.88;45.47;;;;;;;;;;6267714;28;20052;-63
2023/01/19 01:58:16;;;;;;;122.15;43.67;;;;;;;;;;6272051;28;20114;-61
2023/01/19 02:04:57;;;;;;;107.13;40.67;;;;;;;;;;6192533;28;20104;-62
2023/01/19 02:14:55;;;;;;;104.68;40.15;;;;;;;;;;6266264;28;20052;-63
2023/01/19 02:17:57;;;;;;;115.40;43.33;;;;;;;;;;6269566;28;20479;-63
2023/01/19 02:21:21;;;;;;;117.38;45.10;;;;;;;;;;6268079;28;20044;-64
2023/01/19 02:24:23;;;;;;;118.47;44.25;;;;;;;;;;6267932;28;20064;-63
2023/01/19 02:27:23;;;;;;;116.30;46.67;;;;;;;;;;6267238;28;20048;-63
2023/01/19 02:30:24;;;;;;;114.38;45.92;;;;;;;;;;6268581;28;20114;-63
2023/01/19 02:33:24;;;;;;;109.32;44.88;;;;;;;;;;6268913;28;20377;-61
2023/01/19 02:36:31;;;;;;;107.38;44.72;;;;;;;;;;6281562;28;20048;-63
2023/01/19 02:39:37;;;;;;;106.32;41.45;;;;;;;;;;6286824;28;20481;-63
2023/01/19 02:42:46;;;;;;;98.25;41.03;;;;;;;;;;6269237;28;20488;-63
2023/01/19 02:45:47;;;;;;;81.60;36.15;;;;;;;;;;6283408;28;20456;-63
2023/01/19 02:48:48;;;;;;;86.28;35.83;;;;;;;;;;6278614;28;20061;-63
2023/01/19 02:51:48;;;;;;;80.35;35.90;;;;;;;;;;6264815;28;20049;-64
2023/01/19 02:55:00;;;;;;;82.18;34.30;;;;;;;;;;6273356;28;20107;-63
2023/01/19 02:58:09;;;;;;;82.88;34.78;;;;;;;;;;6269734;28;20465;-59
2023/01/19 03:01:40;;;;;;;87.63;35.08;;;;;;;;;;6267581;28;20044;-59
2023/01/19 03:05:10;;;;;;;87.28;33.83;;;;;;;;;;6271324;28;20060;-61
2023/01/19 03:08:41;;;;;;;83.13;34.90;;;;;;;;;;6282190;28;20067;-59
2023/01/19 03:11:49;;;;;;;79.32;32.25;;;;;;;;;;6291997;28;20048;-61
2023/01/19 03:14:54;;;;;;;86.07;34.38;;;;;;;;;;6265645;28;20139;-59
2023/01/19 03:17:58;;;;;;;102.00;39.65;;;;;;;;;;6265325;28;20041;-61
2023/01/19 03:21:04;;;;;;;98.72;42.13;;;;;;;;;;6263429;28;20059;-60
2023/01/19 03:24:07;;;;;;;94.75;39.53;;;;;;;;;;6264104;28;20045;-60
2023/01/19 03:27:13;;;;;;;92.40;38.13;;;;;;;;;;6267773;28;20045;-59
2023/01/19 03:30:23;;;;;;;98.95;38.90;;;;;;;;;;6284415;28;20048;-61
2023/01/19 03:33:28;;;;;;;94.15;40.80;;;;;;;;;;6285242;28;20687;-60
2023/01/19 03:36:36;;;;;;;108.43;41.30;;;;;;;;;;6274093;28;20041;-60
2023/01/19 03:39:36;;;;;;;100.20;41.95;;;;;;;;;;6273585;28;20049;-61
2023/01/19 03:42:39;;;;;;;103.90;42.67;;;;;;;;;;6263800;28;20052;-63
2023/01/19 03:45:40;;;;;;;104.00;42.03;;;;;;;;;;6262614;28;20045;-62
2023/01/19 03:48:41;;;;;;;99.32;40.00;;;;;;;;;;6264494;28;20048;-62
2023/01/19 03:51:41;;;;;;;101.93;40.92;;;;;;;;;;6265869;28;20083;-62
2023/01/19 03:54:42;;;;;;;106.55;42.60;;;;;;;;;;6265167;28;20053;-63
2023/01/19 03:57:44;;;;;;;101.25;43.05;;;;;;;;;;6264824;28;20369;-63
2023/01/19 04:00:44;;;;;;;115.22;44.53;;;;;;;;;;6261915;28;20562;-63
2023/01/19 04:03:46;;;;;;;114.43;44.28;;;;;;;;;;6260772;28;20048;-64
2023/01/19 04:06:46;;;;;;;115.13;43.13;;;;;;;;;;6269524;28;20118;-63
2023/01/19 04:09:47;;;;;;;110.07;43.03;;;;;;;;;;6262317;28;20048;-62
2023/01/19 04:12:48;;;;;;;99.85;41.80;;;;;;;;;;6267731;28;20041;-58
2023/01/19 04:15:48;;;;;;;108.30;42.58;;;;;;;;;;6268755;28;20059;-61
2023/01/19 04:18:49;;;;;;;103.75;41.83;;;;;;;;;;6269234;28;20044;-61
2023/01/19 04:21:50;;;;;;;98.38;38.50;;;;;;;;;;6291006;28;20052;-60
2023/01/19 04:24:50;;;;;;;101.57;40.35;;;;;;;;;;6268296;28;20103;-61
2023/01/19 04:27:52;;;;;;;107.57;42.30;;;;;;;;;;6277454;28;20143;-59
2023/01/19 04:30:53;;;;;;;103.37;43.50;;;;;;;;;;6283780;28;20490;-60
2023/01/19 04:33:54;;;;;;;105.18;41.25;;;;;;;;;;6290158;28;20049;-59
2023/01/19 04:36:55;;;;;;;101.93;40.75;;;;;;;;;;6266335;28;20041;-59
2023/01/19 04:39:55;;;;;;;95.47;40.05;;;;;;;;;;6262763;28;20094;-62
2023/01/19 04:42:56;;;;;;;97.18;38.75;;;;;;;;;;6262566;28;20043;-61
2023/01/19 04:45:57;;;;;;;101.43;41.85;;;;;;;;;;6264325;28;20143;-62
2023/01/19 04:48:58;;;;;;;111.25;44.55;;;;;;;;;;6266078;28;20488;-61
2023/01/19 04:52:00;;;;;;;116.85;45.08;;;;;;;;;;6266259;28;20571;-63
2023/01/19 04:55:02;;;;;;;107.60;42.35;;;;;;;;;;6267407;28;20042;-63
2023/01/19 04:58:02;;;;;;;102.82;42.25;;;;;;;;;;6265668;28;20045;-63
2023/01/19 05:01:07;;;;;;;109.18;43.22;;;;;;;;;;6265000;28;20443;-63
2023/01/19 05:04:08;;;;;;;107.60;44.10;;;;;;;;;;6267241;28;20059;-62
2023/01/19 05:07:09;;;;;;;105.88;44.63;;;;;;;;;;6268140;28;20490;-63
2023/01/19 05:10:10;;;;;;;113.88;43.83;;;;;;;;;;6262492;28;20037;-64
2023/01/19 05:13:11;;;;;;;107.93;42.70;;;;;;;;;;6262528;28;20045;-62
2023/01/19 05:16:12;;;;;;;101.95;42.10;;;;;;;;;;6267380;28;20478;-63
2023/01/19 05:19:13;;;;;;;103.38;42.13;;;;;;;;;;6271602;28;20044;-63
2023/01/19 05:22:14;;;;;;;106.32;41.22;;;;;;;;;;6263966;28;20488;-62
2023/01/19 05:25:15;;;;;;;124.30;46.42;;;;;;;;;;6263813;28;20608;-63
2023/01/19 05:28:16;;;;;;;128.93;49.53;;;;;;;;;;6272323;28;20084;-63
2023/01/19 05:31:16;;;;;;;149.82;56.67;;;;;;;;;;6282464;28;20052;-64
2023/01/19 05:34:17;;;;;;;151.45;61.10;;;;;;;;;;6271952;28;20075;-61
2023/01/19 05:37:19;;;;;;;138.00;52.00;;;;;;;;;;6284909;28;20044;-61
2023/01/19 05:40:20;;;;;;;;;;;;;;;;;;6275558;28;20107;-63
2023/01/19 05:43:20;;;;;;;114.05;45.80;;;;;;;;;;6265037;28;19921;-63
2023/01/19 05:46:22;;;;;;;116.10;46.65;;;;;;;;;;6279672;28;20044;-59
2023/01/19 05:49:22;;;;;;;129.63;50.95;;;;;;;;;;6267439;28;20037;-58
2023/01/19 05:52:23;;;;;;;133.45;53.00;;;;;;;;;;6268523;28;20091;-58
2023/01/19 05:55:24;;;;;;;131.07;51.13;;;;;;;;;;6273539;28;20047;-58
2023/01/19 05:58:25;;;;;;;139.32;57.45;;;;;;;;;;6271161;28;20040;-57
2023/01/19 06:01:26;;;;;;;127.00;50.35;;;;;;;;;;6271218;28;20624;-58
2023/01/19 06:04:27;;;;;;;122.15;49.25;;;;;;;;;;6270290;28;20106;-59
2023/01/19 06:07:27;;;;;;;113.78;45.63;;;;;;;;;;6271564;28;20504;-61
2023/01/19 06:10:28;;;;;;;113.72;46.90;;;;;;;;;;6287334;28;20166;-59
2023/01/19 06:13:28;;;;;;;119.68;46.97;;;;;;;;;;6279827;28;20053;-58
2023/01/19 06:16:29;;;;;;;115.35;47.08;;;;;;;;;;6271343;28;20482;-59
2023/01/19 06:19:29;;;;;;;117.15;46.70;;;;;;;;;;6283492;28;20047;-58
2023/01/19 06:22:30;;;;;;;131.88;51.53;;;;;;;;;;6286649;28;20490;-58
2023/01/19 06:25:31;;;;;;;124.00;52.28;;;;;;;;;;6269430;28;20053;-58
2023/01/19 06:28:31;;;;;;;138.82;56.38;;;;;;;;;;6272539;28;20066;-58
2023/01/19 06:31:32;;;;;;;151.70;58.72;;;;;;;;;;6270675;28;20041;-58
2023/01/19 06:34:33;;;;;;;144.98;60.42;;;;;;;;;;6267682;28;20178;-58
2023/01/19 06:37:34;;;;;;;151.38;61.90;;;;;;;;;;6268755;28;20098;-58
2023/01/19 06:40:34;;;;;;;151.65;59.47;;;;;;;;;;6266411;28;20045;-58
2023/01/19 06:43:35;;;;;;;133.35;58.03;;;;;;;;;;6291604;28;20576;-61
2023/01/19 06:46:35;;;;;;;134.88;53.80;;;;;;;;;;6270239;28;20072;-60
2023/01/19 06:49:36;;;;;;;132.50;53.83;;;;;;;;;;6292541;28;20057;-60
2023/01/19 06:52:41;;;;;;;135.38;55.65;;;;;;;;;;6267352;28;20041;-60
2023/01/19 06:55:42;;;;;;;123.90;50.17;;;;;;;;;;6270126;28;20420;-60
2023/01/19 06:58:46;;;;;;;137.90;55.38;;;;;;;;;;6269271;28;20052;-59
2023/01/19 07:01:46;;;;;;;142.10;56.40;;;;;;;;;;6275980;28;20072;-59
2023/01/19 07:04:47;;;;;;;231.85;72.80;;;;;;;;;;6287714;28;20076;-59
2023/01/19 07:07:52;;;;;;;167.45;60.08;;;;;;;;;;6275152;28;20045;-59
2023/01/19 07:10:58;;;;;;;180.48;62.17;;;;;;;;;;6288372;28;20044;-60
2023/01/19 07:13:59;;;;;;;208.88;71.25;;;;;;;;;;6289196;28;20135;-59
2023/01/19 07:17:01;;;;;;;271.63;80.72;;;;;;;;;;6285753;28;20076;-59
2023/01/19 07:20:01;;;;;;;238.38;74.28;;;;;;;;;;6267246;28;20075;-59
2023/01/19 07:23:03;;;;;;;178.75;65.45;;;;;;;;;;6268645;28;20074;-59
2023/01/19 07:26:03;;;;;;;155.35;61.85;;;;;;;;;;6284387;28;20052;-59
2023/01/19 07:29:04;;;;;;;151.40;58.50;;;;;;;;;;6282427;28;20045;-60
2023/01/19 07:32:05;;;;;;;157.95;58.75;;;;;;;;;;6280654;28;20072;-59
2023/01/19 07:35:06;;;;;;;192.88;72.10;;;;;;;;;;6285893;28;20049;-59
2023/01/19 07:38:06;;;;;;;300.70;101.22;;;;;;;;;;6268748;28;20430;-59
2023/01/19 07:41:08;;;;;;;291.75;96.95;;;;;;;;;;6277367;28;20047;-59
2023/01/19 07:44:09;;;;;;;218.77;83.57;;;;;;;;;;6266131;28;20049;-59
2023/01/19 07:47:11;;;;;;;232.00;87.38;;;;;;;;;;6269279;28;20472;-59
2023/01/19 07:50:12;;;;;;;156.15;62.75;;;;;;;;;;6276605;28;20087;-59
2023/01/19 07:53:13;;;;;;;133.70;52.53;;;;;;;;;;6289393;28;20054;-58
2023/01/19 07:56:13;;;;;;;125.55;47.17;;;;;;;;;;6287735;28;20045;-58
2023/01/19 07:59:14;;;;;;;131.43;48.78;;;;;;;;;;6276259;28;20086;-61
2023/01/19 08:02:15;;;;;;;126.38;48.05;;;;;;;;;;6265666;28;20056;-61
2023/01/19 08:05:17;;;;;;;138.90;46.10;;;;;;;;;;6266984;28;20052;-59
2023/01/19 08:08:19;;;;;;;126.18;45.58;;;;;;;;;;6263637;28;20178;-60
2023/01/19 08:11:19;;;;;;;107.85;43.58;;;;;;;;;;6265045;28;20049;-59
2023/01/19 08:14:20;;;;;;;126.45;44.88;;;;;;;;;;6290678;28;20044;-61
2023/01/19 08:17:20;;;;;;;118.05;42.38;;;;;;;;;;6279653;28;20055;-61
2023/01/19 08:20:22;;;;;;;124.07;42.97;;;;;;;;;;6285249;28;20048;-61
2023/01/19 08:23:22;;;;;;;110.97;41.43;;;;;;;;;;6269603;28;20148;-60
2023/01/19 08:26:28;;;;;;;114.82;42.45;;;;;;;;;;6275692;28;20051;-60
2023/01/19 08:29:30;;;;;;;134.00;44.70;;;;;;;;;;6264106;28;20076;-59
2023/01/19 08:32:31;;;;;;;121.20;43.97;;;;;;;;;;6267188;28;20056;-61
2023/01/19 08:35:37;;;;;;;124.55;46.85;;;;;;;;;;6267112;28;20461;-60
2023/01/19 08:38:42;;;;;;;100.95;36.85;;;;;;;;;;6265573;28;20067;-61
2023/01/19 08:41:43;;;;;;;109.18;39.78;;;;;;;;;;6264797;28;20041;-59
2023/01/19 08:44:44;;;;;;;111.93;40.63;;;;;;;;;;6263179;28;20041;-61
2023/01/19 08:47:44;;;;;;;106.88;40.00;;;;;;;;;;6265314;28;20103;-60
2023/01/19 08:50:46;;;;;;;109.15;40.60;;;;;;;;;;6269852;28;20049;-61
2023/01/19 08:53:47;;;;;;;110.55;41.20;;;;;;;;;;6286457;28;20052;-61
2023/01/19 08:56:47;;;;;;;112.85;42.20;;;;;;;;;;6288388;28;20052;-61
2023/01/19 08:59:48;;;;;;;154.13;51.92;;;;;;;;;;6289378;28;20131;-60
2023/01/19 09:02:48;;;;;;;165.13;52.97;;;;;;;;;;6286631;28;20044;-61
2023/01/19 09:05:49;;;;;;;139.40;47.45;;;;;;;;;;6275548;28;20094;-61
2023/01/19 09:08:50;;;;;;;109.95;44.05;;;;;;;;;;6272048;28;20123;-59
2023/01/19 09:11:53;;;;;;;118.63;44.65;;;;;;;;;;6282336;28;20048;-59
2023/01/19 09:14:53;;;;;;;;;;;;;;;;;;6266226;28;20049;-59
2023/01/19 09:17:54;;;;;;;118.65;43.38;;;;;;;;;;6268173;28;19924;-60
2023/01/19 09:20:56;;;;;;;116.43;44.38;;;;;;;;;;6270609;28;20048;-61
2023/01/19 09:23:57;;;;;;;112.13;43.83;;;;;;;;;;6281658;28;20053;-60
2023/01/19 09:26:57;;;;;;;113.40;43.72;;;;;;;;;;6280290;28;20871;-59
2023/01/19 09:29:58;;;;;;;105.22;39.50;;;;;;;;;;6287151;28;20542;-59
2023/01/19 09:33:07;;;;;;;105.65;40.10;;;;;;;;;;6293736;28;20095;-59
2023/01/19 09:36:07;;;;;;;106.55;40.17;;;;;;;;;;6278975;28;20041;-61
2023/01/19 09:39:09;;;;;;;105.45;41.17;;;;;;;;;;6267016;28;20057;-59
2023/01/19 09:42:29;;;;;;;108.95;39.47;;;;;;;;;;6270328;28;20062;-59
2023/01/19 09:45:40;;;;;;;107.05;41.40;;;;;;;;;;6266818;28;20124;-59
2023/01/19 09:48:46;;;;;;;105.85;39.15;;;;;;;;;;6270992;28;20048;-59
2023/01/19 09:51:49;;;;;;;110.80;40.58;;;;;;;;;;6269776;28;20053;-59
2023/01/19 09:54:54;;;;;;;115.63;41.42;;;;;;;;;;6268939;28;20384;-60
2023/01/19 09:57:55;;;;;;;102.47;38.60;;;;;;;;;;6268274;28;20048;-59
2023/01/19 10:01:06;;;;;;;108.20;37.40;;;;;;;;;;6268178;28;20048;-59
2023/01/19 10:04:25;;;;;;;108.85;39.22;;;;;;;;;;6267997;28;20499;-60
2023/01/19 10:07:31;;;;;;;101.57;36.55;;;;;;;;;;6267948;28;20071;-60
2023/01/19 10:10:33;;;;;;;105.03;38.75;;;;;;;;;;6287227;28;20052;-59
2023/01/19 10:13:45;;;;;;;98.50;34.95;;;;;;;;;;6267009;28;20052;-60
2023/01/19 10:16:58;;;;;;;99.07;37.58;;;;;;;;;;6267490;28;20411;-60
2023/01/19 10:20:02;;;;;;;107.97;36.63;;;;;;;;;;6269820;28;20041;-62
2023/01/19 10:23:12;;;;;;;96.47;34.38;;;;;;;;;;6267765;28;20076;-61
2023/01/19 10:26:18;;;;;;;92.65;32.78;;;;;;;;;;6267354;28;20484;-59
2023/01/19 10:29:36;;;;;;;76.85;28.70;;;;;;;;;;6273867;28;20052;-59
2023/01/19 10:32:37;;;;;;;87.93;31.92;;;;;;;;;;6268636;28;20964;-59
2023/01/19 10:35:38;;;;;;;85.72;31.35;;;;;;;;;;6270430;28;20055;-60
2023/01/19 10:38:38;;;;;;;87.18;30.20;;;;;;;;;;6269792;28;20056;-60
2023/01/19 10:41:40;;;;;;;84.00;29.77;;;;;;;;;;6268704;28;20048;-62
2023/01/19 10:44:42;;;;;;;80.35;29.40;;;;;;;;;;6265272;28;20416;-61
2023/01/19 10:47:44;;;;;;;76.82;28.77;;;;;;;;;;6266209;28;20053;-60
2023/01/19 10:50:44;;;;;;;82.65;28.90;;;;;;;;;;6269132;28;20044;-60
2023/01/19 10:53:55;;;;;;;81.10;27.45;;;;;;;;;;6269538;28;20051;-60
2023/01/19 10:57:06;;;;;;;78.97;28.10;;;;;;;;;;6267240;28;20075;-60
2023/01/19 11:00:31;;;;;;;103.18;33.10;;;;;;;;;;6271646;28;20503;-62
2023/01/19 11:03:31;;;;;;;102.28;32.88;;;;;;;;;;6270893;28;20051;-61
2023/01/19 11:06:34;;;;;;;100.80;34.40;;;;;;;;;;6269228;28;20571;-59
2023/01/19 11:09:34;;;;;;;;;;;;;;;;;;6275903;28;20048;-61
2023/01/19 11:12:39;;;;;;;80.35;26.98;;;;;;;;;;6289141;28;19931;-62
2023/01/19 11:15:48;;;;;;;61.90;22.83;;;;;;;;;;6293472;28;20473;-61
2023/01/19 11:18:54;;;;;;;78.75;27.23;;;;;;;;;;6292396;28;20072;-61
2023/01/19 11:22:25;;;;;;;80.38;28.63;;;;;;;;;;6287858;28;20131;-61
2023/01/19 11:25:30;;;;;;;82.60;26.58;;;;;;;;;;6292622;28;20057;-59
2023/01/19 11:28:38;;;;;;;85.00;29.58;;;;;;;;;;6288765;28;20046;-61
2023/01/19 11:31:39;;;;;;;83.90;28.60;;;;;;;;;;6288560;28;20881;-60
2023/01/19 11:34:39;;;;;;;78.30;28.13;;;;;;;;;;6273286;28;20086;-60
2023/01/19 11:37:42;;;;;;;81.50;28.20;;;;;;;;;;6264496;28;20052;-60
2023/01/19 11:40:52;;;;;;;81.00;29.45;;;;;;;;;;6271640;28;20041;-60
2023/01/19 11:43:55;;;;;;;80.53;27.33;;;;;;;;;;6266043;28;20045;-61
2023/01/19 11:46:59;;;;;;;75.72;26.60;;;;;;;;;;6265915;28;20052;-59
2023/01/19 11:50:05;;;;;;;78.07;27.08;;;;;;;;;;6264206;28;20081;-60
2023/01/19 11:53:12;;;;;;;81.10;26.65;;;;;;;;;;6264076;28;20123;-58
2023/01/19 11:56:14;;;;;;;76.78;25.98;;;;;;;;;;6266605;28;20064;-59
2023/01/19 11:59:14;;;;;;;;;;;;;;;;;;6268137;28;20646;-61
2023/01/19 12:02:25;;;;;;;72.05;25.13;;;;;;;;;;6265844;28;19929;-61
2023/01/19 12:05:33;;;;;;;72.88;25.42;;;;;;;;;;6259888;28;20045;-61
2023/01/19 12:08:52;;;;;;;71.80;24.33;;;;;;;;;;6263631;28;20510;-61
2023/01/19 12:12:07;;;;;;;67.60;22.58;;;;;;;;;;6247659;28;20046;-61
2023/01/19 12:15:30;;;;;;;65.82;22.88;;;;;;;;;;6265653;28;20049;-61
2023/01/19 12:18:39;;;;;;;74.40;26.35;;;;;;;;;;6276338;28;20048;-61
2023/01/19 12:21:40;;;;;;;75.60;25.55;;;;;;;;;;6283998;28;20430;-61
2023/01/19 12:25:04;;;;;;;75.97;25.90;;;;;;;;;;6292151;28;20102;-60
2023/01/19 12:28:11;;;;;;;76.75;24.85;;;;;;;;;;6271830;28;20045;-61
2023/01/19 12:31:20;;;;;;;74.80;26.00;;;;;;;;;;6261484;28;20066;-60
2023/01/19 12:34:30;;;;;;;78.85;26.10;;;;;;;;;;6287517;28;20044;-60
2023/01/19 12:37:38;;;;;;;68.40;23.88;;;;;;;;;;6286727;28;20501;-61
2023/01/19 12:40:38;;;;;;;65.80;24.27;;;;;;;;;;6290742;28;20090;-61
2023/01/19 12:43:39;;;;;;;67.22;23.85;;;;;;;;;;6266758;28;20465;-61
2023/01/19 12:46:52;;;;;;;76.05;25.25;;;;;;;;;;6282930;28;20056;-60
2023/01/19 12:49:55;;;;;;;;;;;;;;;;;;6287674;28;20135;-60
2023/01/19 12:52:58;;;;;;;72.20;23.38;;;;;;;;;;6263313;28;19928;-61
2023/01/19 12:56:05;;;;;;;74.53;24.10;;;;;;;;;;6268739;28;20057;-60
2023/01/19 12:59:05;;;;;;;75.03;24.77;;;;;;;;;;6270097;28;20048;-60
2023/01/19 13:02:36;;;;;;;70.97;24.30;;;;;;;;;;6276814;28;20041;-61
2023/01/19 13:05:37;;;;;;;69.75;24.52;;;;;;;;;;6288233;28;20129;-60
2023/01/19 13:08:57;;;;;;;69.10;23.95;;;;;;;;;;6292681;28;20076;-60
2023/01/19 13:12:13;;;;;;;71.05;24.42;;;;;;;;;;6291981;28;20552;-60
2023/01/19 13:15:33;;;;;;;63.97;23.50;;;;;;;;;;6295951;28;20040;-61
2023/01/19 13:18:40;;;;;;;68.88;26.23;;;;;;;;;;6290768;28;20468;-60
2023/01/19 13:21:46;;;;;;;70.43;26.05;;;;;;;;;;6292415;28;20044;-60
2023/01/19 13:25:05;;;;;;;70.18;24.67;;;;;;;;;;6295893;28;20060;-60
2023/01/19 13:28:08;;;;;;;73.43;25.13;;;;;;;;;;6292001;28;20062;-60
2023/01/19 13:31:10;;;;;;;73.93;26.40;;;;;;;;;;6289921;28;20188;-61
2023/01/19 13:34:15;;;;;;;78.35;27.05;;;;;;;;;;6273340;28;20744;-61
2023/01/19 13:37:19;;;;;;;74.47;25.08;;;;;;;;;;6271435;28;20055;-61
2023/01/19 13:40:29;;;;;;;66.35;23.98;;;;;;;;;;6269271;28;20114;-60
2023/01/19 13:43:35;;;;;;;68.57;25.15;;;;;;;;;;6270099;28;20045;-61
2023/01/19 13:46:37;;;;;;;69.10;25.65;;;;;;;;;;6271630;28;20063;-61
2023/01/19 13:49:42;;;;;;;68.47;25.40;;;;;;;;;;6270691;28;20120;-61
2023/01/19 13:52:43;;;;;;;69.93;24.92;;;;;;;;;;6270498;28;20053;-61
2023/01/19 13:55:43;;;;;;;67.53;25.52;;;;;;;;;;6271521;28;20048;-61
2023/01/19 13:58:56;;;;;;;68.38;24.58;;;;;;;;;;6267819;28;20053;-60
2023/01/19 14:02:07;;;;;;;66.78;25.33;;;;;;;;;;6257266;28;20053;-61
2023/01/19 14:05:15;;;;;;;70.65;24.50;;;;;;;;;;6266558;28;20136;-61
2023/01/19 14:08:17;;;;;;;64.50;23.50;;;;;;;;;;6267722;28;20053;-60
2023/01/19 14:11:18;;;;;;;60.88;23.17;;;;;;;;;;6268986;28;20417;-60
2023/01/19 14:14:23;;;;;;;58.42;22.98;;;;;;;;;;6283419;28;20060;-61
2023/01/19 14:17:27;;;;;;;64.78;21.05;;;;;;;;;;6293553;28;20051;-60
2023/01/19 14:20:28;;;;;;;60.90;21.90;;;;;;;;;;6294579;28;20120;-60
2023/01/19 14:24:04;;;;;;;61.42;22.55;;;;;;;;;;6289478;28;20062;-61
2023/01/19 14:27:18;;;;;;;59.83;21.17;;;;;;;;;;6290865;28;20109;-61
2023/01/19 14:30:21;;;;;;;56.58;21.95;;;;;;;;;;6294746;28;20053;-60
2023/01/19 14:33:38;;;;;;;57.75;21.70;;;;;;;;;;6290889;28;20055;-61
2023/01/19 14:36:40;;;;;;;65.97;22.48;;;;;;;;;;6271060;28;20057;-61
2023/01/19 14:39:56;;;;;;;66.00;24.70;;;;;;;;;;6270294;28;20623;-61
2023/01/19 14:43:01;;;;;;;77.03;26.95;;;;;;;;;;6268310;28;20033;-61
2023/01/19 14:46:02;;;;;;;78.93;27.90;;;;;;;;;;6272982;28;20427;-60
2023/01/19 14:49:05;;;;;;;80.85;28.67;;;;;;;;;;6269860;28;20045;-61
2023/01/19 14:52:18;;;;;;;83.75;27.27;;;;;;;;;;6274396;28;20041;-61
2023/01/19 14:55:24;;;;;;;75.05;24.85;;;;;;;;;;6271093;28;20055;-61
2023/01/19 14:58:26;;;;;;;68.82;25.55;;;;;;;;;;6267242;28;20090;-60
2023/01/19 15:01:27;;;;;;;69.60;24.80;;;;;;;;;;6267559;28;20430;-60
2023/01/19 15:04:28;;;;;;;69.50;24.80;;;;;;;;;;6281618;28;20048;-60
2023/01/19 15:07:29;;;;;;;76.88;26.13;;;;;;;;;;6267473;28;20463;-60
2023/01/19 15:10:30;;;;;;;67.95;25.13;;;;;;;;;;6268712;28;20053;-61
2023/01/19 15:13:31;;;;;;;70.63;25.85;;;;;;;;;;6268333;28;20044;-60
2023/01/19 15:16:33;;;;;;;74.38;25.13;;;;;;;;;;6272923;28;20053;-61
2023/01/19 15:19:33;;;;;;;67.00;24.88;;;;;;;;;;6291693;28;20053;-60
2023/01/19 15:22:34;;;;;;;56.13;23.77;;;;;;;;;;6269280;28;20059;-60
2023/01/19 15:25:35;;;;;;;64.55;24.98;;;;;;;;;;6279517;28;20052;-60
2023/01/19 15:28:35;;;;;;;63.92;25.00;;;;;;;;;;6282467;28;20522;-60
2023/01/19 15:31:36;;;;;;;66.88;25.90;;;;;;;;;;6268267;28;20075;-62
2023/01/19 15:34:36;;;;;;;65.00;24.33;;;;;;;;;;6269128;28;20045;-61
2023/01/19 15:37:37;;;;;;;63.72;24.38;;;;;;;;;;6266899;28;20107;-60
2023/01/19 15:40:38;;;;;;;66.97;24.50;;;;;;;;;;6271816;28;20052;-60
2023/01/19 15:43:38;;;;;;;61.00;23.42;;;;;;;;;;6293251;28;20393;-61
2023/01/19 15:46:39;;;;;;;70.03;25.33;;;;;;;;;;6269129;28;20376;-60
2023/01/19 15:49:40;;;;;;;66.28;23.48;;;;;;;;;;6268763;28;20086;-58
2023/01/19 15:52:40;;;;;;;69.20;26.17;;;;;;;;;;6268212;28;20062;-54
2023/01/19 15:55:41;;;;;;;74.15;24.83;;;;;;;;;;6269409;28;20040;-61
2023/01/19 15:58:43;;;;;;;69.57;24.70;;;;;;;;;;6282658;28;20050;-58
2023/01/19 16:01:43;;;;;;;65.38;24.08;;;;;;;;;;6292080;28;20135;-57
2023/01/19 16:04:47;;;;;;;69.20;25.20;;;;;;;;;;6290718;28;20050;-55
2023/01/19 16:07:48;;;;;;;82.22;28.58;;;;;;;;;;6289919;28;20044;-55
2023/01/19 16:10:49;;;;;;;74.35;25.23;;;;;;;;;;6291888;28;20074;-57
2023/01/19 16:13:49;;;;;;;67.38;25.23;;;;;;;;;;6277499;28;20096;-58
2023/01/19 16:16:50;;;;;;;66.32;24.25;;;;;;;;;;6276771;28;20044;-57
2023/01/19 16:19:50;;;;;;;76.05;27.52;;;;;;;;;;6269903;28;20104;-57
2023/01/19 16:22:51;;;;;;;73.15;26.10;;;;;;;;;;6279136;28;20041;-56
2023/01/19 16:26:06;;;;;;;73.05;25.63;;;;;;;;;;6292529;28;20048;-58
2023/01/19 16:29:08;;;;;;;71.18;25.98;;;;;;;;;;6290261;28;20051;-56
2023/01/19 16:32:09;;;;;;;72.40;26.55;;;;;;;;;;6289807;28;20105;-59
2023/01/19 16:35:11;;;;;;;80.80;26.35;;;;;;;;;;6275741;28;20041;-56
2023/01/19 16:38:12;;;;;;;73.63;27.55;;;;;;;;;;6267435;28;20362;-54
2023/01/19 16:41:12;;;;;;;77.57;28.58;;;;;;;;;;6268096;28;20060;-56
2023/01/19 16:44:14;;;;;;;79.75;27.88;;;;;;;;;;6291295;28;20556;-60
2023/01/19 16:47:15;;;;;;;89.47;29.75;;;;;;;;;;6291274;28;20491;-57
2023/01/19 16:50:16;;;;;;;83.57;29.73;;;;;;;;;;6292224;28;20052;-57
2023/01/19 16:53:16;;;;;;;80.72;28.80;;;;;;;;;;6292003;28;20493;-54
2023/01/19 16:56:17;;;;;;;81.07;29.60;;;;;;;;;;6292121;28;20399;-57
2023/01/19 16:59:19;;;;;;;86.03;30.13;;;;;;;;;;6290455;28;20155;-57
2023/01/19 17:02:20;;;;;;;84.25;28.98;;;;;;;;;;6292025;28;20139;-55
2023/01/19 17:05:22;;;;;;;77.82;27.52;;;;;;;;;;6292510;28;20051;-57
2023/01/19 17:08:23;;;;;;;;;;;;;;;;;;6285411;28;20047;-54
2023/01/19 17:11:27;;;;;;;82.53;29.15;;;;;;;;;;6263947;28;20634;-60
2023/01/19 17:14:27;;;;;;;92.78;30.00;;;;;;;;;;6260094;28;20049;-55
2023/01/19 17:17:28;;;;;;;85.50;32.75;;;;;;;;;;6258643;28;20045;-60
2023/01/19 17:20:28;;;;;;;86.50;29.55;;;;;;;;;;6258677;28;20099;-56
2023/01/19 17:23:29;;;;;;;88.35;28.77;;;;;;;;;;6264716;28;20049;-57
2023/01/19 17:26:30;;;;;;;95.72;33.22;;;;;;;;;;6258844;28;20055;-57
2023/01/19 17:29:30;;;;;;;92.97;32.78;;;;;;;;;;6260975;28;20119;-57
2023/01/19 17:32:31;;;;;;;90.43;31.42;;;;;;;;;;6263000;28;20587;-58
2023/01/19 17:35:33;;;;;;;90.07;30.80;;;;;;;;;;6250905;28;20131;-56
2023/01/19 17:38:35;;;;;;;92.45;32.53;;;;;;;;;;6244463;28;20053;-56
2023/01/19 17:41:36;;;;;;;93.38;33.83;;;;;;;;;;6257391;28;20178;-57
2023/01/19 17:44:36;;;;;;;92.38;34.08;;;;;;;;;;6254348;28;20504;-54
2023/01/19 17:47:37;;;;;;;101.03;34.08;;;;;;;;;;6255506;28;20064;-56
2023/01/19 17:50:38;;;;;;;104.53;34.20;;;;;;;;;;6258594;28;20064;-56
2023/01/19 17:53:39;;;;;;;97.10;36.10;;;;;;;;;;6258506;28;20041;-57
2023/01/19 17:56:40;;;;;;;103.05;35.10;;;;;;;;;;6256329;28;20560;-54
2023/01/19 17:59:42;;;;;;;101.28;34.42;;;;;;;;;;6257121;28;20140;-53